Main page
METAR-TAF:

METAR-TAF

Airports :

Southern Wisconsin Regional Airport

Janesville, Wisconsin, United States

latitude: 42-37N, longitude: 089-02W, elevation: 807 ft

Current weather observation

The report was made 56 minutes ago, at 18:45 UTC
Wind 7 mph from the Northeast
Temperature 52°F
Humidity 24%
Pressure 30.27 in. Hg
Visibility: 10 miles
Clear sky

METAR: KJVL 241845Z 05006KT 10SM SKC 11/M09 A3027

Time: 14:41 (19:41 UTC)

Forecast

The report was made 2 hours and 21 minutes ago, at 17:20 UTC
Forecast valid from 24 at 18 UTC to 25 at 18 UTC
Wind 7 mph from the East/Northeast
Visibility: 6 miles
Clear sky
From 25 at 0300 UTC
Wind 3 mph from the East
Visibility: 6 miles
Clear sky
From 25 at 1600 UTC
Wind 8 mph from the Southeast
Visibility: 6 miles
Clear sky

TAF: KJVL 241720Z 2418/2518 06006KT P6SM SKC FM250300 10003KT P6SM SKC FM251600 13007KT P6SM SKC

Weather observations and forecasts of more than 4000 airports (METAR and TAF reports).

The available stations are represented by yellow and red dots on the map.

Hover mouse over dot to see the name of the station.

Then click to see weather observations and forecasts.

To change the map : click on the green buttons with a black cross to zoom in, on the green button with a dash to zoom out, or on the green arrows for adjacent maps.


METAR-TAF: